Aviation Digital Data Service (ADDS)

Output produced by METARs form (2037 UTC 20 July 2018)
found at http://www.aviationweather.gov/adds/metars/
 
METAR text: KNHK 201952Z 13006KT 10SM FEW060 SCT210 BKN280 29/14 A3007 RMK AO2 SLP182 T02940144
Conditions at: KNHK (PATUXENT RIVER , MD, US) observed 1952 UTC 20 July 2018
Temperature: 29.4°C (85°F)
Dewpoint: 14.4°C (58°F) [RH = 40%]
Pressure (altimeter): 30.07 inches Hg (1018.4 mb)
[Sea-level pressure: 1018.2 mb]
Winds: from the SE (130 degrees) at 7 MPH (6 knots; 3.1 m/s)
Visibility: 10 or more miles (16+ km)
Ceiling: 28000 feet AGL
Clouds: few clouds at 6000 feet AGL
scattered clouds at 21000 feet AGL
broken clouds at 28000 feet AGL
Weather: no significant weather observed at this time